Time;durP1;ratioP1;P1;durP2;ratioP2;P2;SDS_P1;SDS_P2;PMS_P1;PMS_P2;Temp;Humidity;BMP_temperature;BMP_pressure;BME280_temperature;BME280_humidity;BME280_pressure;Samples;Min_cycle;Max_cycle;Signal;HPM_P1;HPM_P2
2023/04/12 00:02:26;;;;;;;0.97;0.70;;;;;;;;;;5021605;28;57414;-66
2023/04/12 00:04:54;;;;;;;1.30;0.98;;;;;;;;;;5023753;28;58420;-67
2023/04/12 00:07:20;;;;;;;;;;;;;;;;;;5024321;28;58295;-67
2023/04/12 00:09:45;;;;;;;2.67;0.90;;;;;;;;;;5024530;28;59217;-63
2023/04/12 00:12:10;;;;;;;1.80;1.07;;;;;;;;;;5018278;28;57815;-66
2023/04/12 00:14:35;;;;;;;1.60;1.50;;;;;;;;;;5024393;28;57846;-66
2023/04/12 00:17:00;;;;;;;2.03;0.60;;;;;;;;;;5023513;28;58431;-66
2023/04/12 00:19:26;;;;;;;1.50;0.90;;;;;;;;;;5017054;28;57742;-67
2023/04/12 00:21:51;;;;;;;2.60;1.40;;;;;;;;;;5022982;28;58168;-66
2023/04/12 00:24:17;;;;;;;1.83;1.00;;;;;;;;;;5021574;28;58131;-66
2023/04/12 00:26:42;;;;;;;1.90;0.82;;;;;;;;;;5021948;28;57902;-65
2023/04/12 00:29:07;;;;;;;1.02;0.90;;;;;;;;;;5026328;28;57864;-66
2023/04/12 00:31:32;;;;;;;1.43;1.33;;;;;;;;;;5029451;28;57902;-66
2023/04/12 00:33:57;;;;;;;1.85;0.55;;;;;;;;;;5022881;28;58710;-66
2023/04/12 00:36:22;;;;;;;2.83;0.90;;;;;;;;;;5024636;28;57969;-66
2023/04/12 00:38:48;;;;;;;0.52;0.45;;;;;;;;;;5026710;28;57938;-66
2023/04/12 00:41:13;;;;;;;1.10;0.40;;;;;;;;;;5010036;28;58028;-68
2023/04/12 00:43:41;;;;;;;0.60;0.50;;;;;;;;;;5007945;28;57957;-66
2023/04/12 00:46:07;;;;;;;1.17;0.88;;;;;;;;;;5005292;28;58419;-66
2023/04/12 00:48:32;;;;;;;1.83;0.50;;;;;;;;;;5005721;28;58074;-65
2023/04/12 00:50:58;;;;;;;0.50;0.50;;;;;;;;;;5024286;28;57495;-66
2023/04/12 00:53:23;;;;;;;2.00;0.65;;;;;;;;;;5024921;28;57814;-66
2023/04/12 00:55:49;;;;;;;1.80;0.97;;;;;;;;;;5026441;28;59263;-66
2023/04/12 00:58:15;;;;;;;2.00;0.55;;;;;;;;;;5025065;28;57748;-67
2023/04/12 01:00:40;;;;;;;0.60;0.45;;;;;;;;;;5031985;28;59083;-67
2023/04/12 01:03:07;;;;;;;1.00;0.90;;;;;;;;;;5026474;28;58133;-67
2023/04/12 01:05:35;;;;;;;1.83;0.95;;;;;;;;;;5021932;28;57925;-66
2023/04/12 01:08:20;;;;;;;1.42;0.60;;;;;;;;;;5016923;28;58362;-67
2023/04/12 01:10:46;;;;;;;0.85;0.52;;;;;;;;;;5025004;28;58010;-65
2023/04/12 01:13:19;;;;;;;1.75;0.63;;;;;;;;;;5026376;28;58077;-66
2023/04/12 01:15:50;;;;;;;0.60;0.60;;;;;;;;;;5023618;28;58010;-66
2023/04/12 01:18:18;;;;;;;0.40;0.40;;;;;;;;;;5031574;28;57904;-66
2023/04/12 01:20:43;;;;;;;;;;;;;;;;;;5029428;28;58341;-66
2023/04/12 01:23:38;;;;;;;1.43;1.07;;;;;;;;;;5021859;28;58499;-67
2023/04/12 01:26:20;;;;;;;0.65;0.40;;;;;;;;;;5024382;28;57485;-66
2023/04/12 01:28:46;;;;;;;0.70;0.70;;;;;;;;;;5024683;28;58094;-65
2023/04/12 01:31:11;;;;;;;0.77;0.43;;;;;;;;;;5024891;28;58318;-66
2023/04/12 01:33:38;;;;;;;1.35;0.65;;;;;;;;;;5028491;28;58027;-67
2023/04/12 01:36:12;;;;;;;0.88;0.63;;;;;;;;;;5024899;28;57653;-67
2023/04/12 01:38:38;;;;;;;0.50;0.30;;;;;;;;;;5021069;28;58414;-66
2023/04/12 01:41:04;;;;;;;1.30;0.52;;;;;;;;;;5025563;28;58137;-66
2023/04/12 01:43:29;;;;;;;1.25;0.40;;;;;;;;;;5024756;28;60644;-66
2023/04/12 01:45:55;;;;;;;0.40;0.40;;;;;;;;;;5026097;28;58284;-66
2023/04/12 01:48:20;;;;;;;0.88;0.52;;;;;;;;;;5026529;28;58291;-66
2023/04/12 01:50:45;;;;;;;1.13;0.38;;;;;;;;;;5026706;28;58478;-66
2023/04/12 01:53:12;;;;;;;0.93;0.75;;;;;;;;;;5026352;28;58313;-66
2023/04/12 01:55:38;;;;;;;0.60;0.60;;;;;;;;;;5028709;28;58581;-67
2023/04/12 01:58:04;;;;;;;0.60;0.55;;;;;;;;;;5026608;28;57758;-66
2023/04/12 02:00:30;;;;;;;1.17;0.63;;;;;;;;;;5027399;28;58248;-66
2023/04/12 02:02:56;;;;;;;0.55;0.55;;;;;;;;;;5023854;28;58206;-66
2023/04/12 02:05:21;;;;;;;0.70;0.68;;;;;;;;;;5023621;28;57736;-66
2023/04/12 02:07:47;;;;;;;0.50;0.50;;;;;;;;;;5025887;28;58349;-66
2023/04/12 02:10:13;;;;;;;0.57;0.40;;;;;;;;;;5021718;28;58154;-66
2023/04/12 02:12:38;;;;;;;0.55;0.30;;;;;;;;;;5026424;28;58367;-66
2023/04/12 02:15:06;;;;;;;0.40;0.40;;;;;;;;;;5026820;28;58870;-66
2023/04/12 02:17:32;;;;;;;0.40;0.40;;;;;;;;;;5027923;28;58147;-66
2023/04/12 02:19:57;;;;;;;0.37;0.30;;;;;;;;;;5022212;28;58213;-66
2023/04/12 02:22:22;;;;;;;0.98;0.60;;;;;;;;;;5026780;28;58890;-66
2023/04/12 02:24:47;;;;;;;0.52;0.52;;;;;;;;;;5027580;28;57983;-67
2023/04/12 02:27:12;;;;;;;1.20;0.40;;;;;;;;;;5022836;28;57884;-66
2023/04/12 02:29:37;;;;;;;0.52;0.47;;;;;;;;;;5024478;28;59312;-66
2023/04/12 02:32:03;;;;;;;0.40;0.33;;;;;;;;;;5025859;28;58140;-66
2023/04/12 02:34:32;;;;;;;0.47;0.37;;;;;;;;;;5024094;28;58153;-66
2023/04/12 02:36:58;;;;;;;1.02;0.50;;;;;;;;;;5023005;28;58074;-66
2023/04/12 02:39:23;;;;;;;1.15;0.85;;;;;;;;;;5040822;28;60350;-67
2023/04/12 02:41:48;;;;;;;1.13;0.50;;;;;;;;;;5020186;28;57775;-67
2023/04/12 02:44:14;;;;;;;0.30;0.30;;;;;;;;;;5020700;28;57596;-66
2023/04/12 02:46:39;;;;;;;0.53;0.53;;;;;;;;;;5024945;28;57802;-66
2023/04/12 02:49:04;;;;;;;1.20;0.53;;;;;;;;;;5023984;28;58517;-66
2023/04/12 02:51:30;;;;;;;0.53;0.30;;;;;;;;;;5024804;28;58087;-66
2023/04/12 02:53:55;;;;;;;0.73;0.73;;;;;;;;;;5023660;28;58364;-66
2023/04/12 02:56:20;;;;;;;0.63;0.50;;;;;;;;;;5026533;28;58109;-66
2023/04/12 02:58:46;;;;;;;1.13;0.90;;;;;;;;;;5025852;28;57512;-66
2023/04/12 03:01:11;;;;;;;0.32;0.30;;;;;;;;;;5022109;28;58139;-66
2023/04/12 03:03:37;;;;;;;0.35;0.32;;;;;;;;;;5023754;28;58169;-66
2023/04/12 03:06:03;;;;;;;0.20;0.20;;;;;;;;;;5027478;28;58291;-66
2023/04/12 03:08:28;;;;;;;0.40;0.40;;;;;;;;;;5019692;28;58717;-67
2023/04/12 03:10:53;;;;;;;0.43;0.30;;;;;;;;;;5023074;28;58197;-66
2023/04/12 03:13:18;;;;;;;0.40;0.30;;;;;;;;;;5023980;28;57838;-66
2023/04/12 03:15:45;;;;;;;0.38;0.30;;;;;;;;;;5025355;28;57910;-67
2023/04/12 03:18:10;;;;;;;2.13;0.50;;;;;;;;;;5024690;28;57909;-66
2023/04/12 03:20:37;;;;;;;0.40;0.40;;;;;;;;;;5026073;28;57796;-66
2023/04/12 03:23:03;;;;;;;0.30;0.30;;;;;;;;;;5027076;28;58424;-66
2023/04/12 03:25:28;;;;;;;0.60;0.20;;;;;;;;;;5024223;28;57505;-67
2023/04/12 03:27:53;;;;;;;0.60;0.47;;;;;;;;;;5028475;28;57711;-66
2023/04/12 03:30:18;;;;;;;0.50;0.25;;;;;;;;;;5027654;28;58005;-66
2023/04/12 03:32:43;;;;;;;1.13;0.93;;;;;;;;;;5023148;28;57632;-65
2023/04/12 03:35:09;;;;;;;1.00;0.37;;;;;;;;;;5026974;28;58202;-64
2023/04/12 03:37:34;;;;;;;0.80;0.38;;;;;;;;;;5021448;28;58011;-67
2023/04/12 03:40:00;;;;;;;0.60;0.30;;;;;;;;;;5028176;28;58230;-66
2023/04/12 03:42:26;;;;;;;0.45;0.45;;;;;;;;;;5027449;28;58079;-66
2023/04/12 03:44:51;;;;;;;0.40;0.40;;;;;;;;;;5023995;28;59071;-66
2023/04/12 03:47:16;;;;;;;0.43;0.33;;;;;;;;;;5024638;28;58407;-67
2023/04/12 03:49:41;;;;;;;0.20;0.20;;;;;;;;;;5024742;28;57874;-65
2023/04/12 03:52:06;;;;;;;0.17;0.17;;;;;;;;;;5023720;28;58258;-65
2023/04/12 03:54:32;;;;;;;0.60;0.23;;;;;;;;;;5024782;28;57793;-67
2023/04/12 03:56:57;;;;;;;0.27;0.20;;;;;;;;;;5019472;28;57971;-66
2023/04/12 03:59:22;;;;;;;0.67;0.30;;;;;;;;;;5023448;28;58449;-66
2023/04/12 04:01:47;;;;;;;0.57;0.57;;;;;;;;;;5023809;28;57860;-66
2023/04/12 04:04:12;;;;;;;0.40;0.40;;;;;;;;;;5023300;28;57928;-66
2023/04/12 04:06:38;;;;;;;0.60;0.30;;;;;;;;;;5026636;28;57605;-66
2023/04/12 04:09:03;;;;;;;0.50;0.30;;;;;;;;;;5025675;28;57896;-66
2023/04/12 04:11:28;;;;;;;0.55;0.30;;;;;;;;;;5024954;28;58178;-66
2023/04/12 04:13:53;;;;;;;0.37;0.30;;;;;;;;;;5023325;28;57954;-66
2023/04/12 04:16:18;;;;;;;0.52;0.25;;;;;;;;;;5021149;28;58329;-66
2023/04/12 04:18:44;;;;;;;0.30;0.30;;;;;;;;;;5027528;28;58260;-66
2023/04/12 04:21:09;;;;;;;0.40;0.20;;;;;;;;;;5028366;28;58275;-66
2023/04/12 04:23:43;;;;;;;0.45;0.28;;;;;;;;;;5021882;28;58064;-66
2023/04/12 04:26:09;;;;;;;0.22;0.20;;;;;;;;;;5019629;28;59647;-66
2023/04/12 04:28:36;;;;;;;0.70;0.20;;;;;;;;;;5028612;28;58148;-66
2023/04/12 04:31:05;;;;;;;0.30;0.30;;;;;;;;;;5027224;28;58364;-66
2023/04/12 04:33:30;;;;;;;0.32;0.10;;;;;;;;;;5028730;28;57855;-66
2023/04/12 04:35:55;;;;;;;0.40;0.35;;;;;;;;;;5028753;28;58216;-66
2023/04/12 04:38:24;;;;;;;2.28;0.63;;;;;;;;;;5029066;28;58095;-66
2023/04/12 04:40:52;;;;;;;0.40;0.40;;;;;;;;;;5025284;28;58104;-66
2023/04/12 04:43:17;;;;;;;1.55;1.13;;;;;;;;;;5027631;28;59015;-67
2023/04/12 04:45:42;;;;;;;6.38;1.10;;;;;;;;;;5026019;28;58114;-66
2023/04/12 04:48:07;;;;;;;4.10;0.98;;;;;;;;;;5022005;28;57701;-66
2023/04/12 04:50:32;;;;;;;1.57;0.53;;;;;;;;;;5027875;28;59809;-67
2023/04/12 04:52:58;;;;;;;2.45;1.00;;;;;;;;;;5023210;28;58029;-66
2023/04/12 04:55:24;;;;;;;2.90;0.55;;;;;;;;;;5021717;28;58115;-67
2023/04/12 04:57:49;;;;;;;1.25;0.80;;;;;;;;;;5023102;28;57895;-66
2023/04/12 05:00:15;;;;;;;1.75;0.70;;;;;;;;;;5023980;28;58559;-66
2023/04/12 05:02:44;;;;;;;3.28;0.98;;;;;;;;;;5023149;28;57949;-66
2023/04/12 05:05:12;;;;;;;3.63;1.02;;;;;;;;;;5023672;28;58075;-67
2023/04/12 05:07:37;;;;;;;3.10;1.52;;;;;;;;;;5027035;28;58953;-67
2023/04/12 05:10:02;;;;;;;1.80;0.70;;;;;;;;;;5022474;28;58117;-66
2023/04/12 05:12:28;;;;;;;3.17;1.08;;;;;;;;;;5022247;28;58871;-67
2023/04/12 05:14:53;;;;;;;1.63;0.93;;;;;;;;;;5022213;28;58410;-67
2023/04/12 05:17:18;;;;;;;1.48;1.10;;;;;;;;;;5017644;28;57913;-67
2023/04/12 05:19:43;;;;;;;3.77;0.80;;;;;;;;;;5018753;28;57621;-66
2023/04/12 05:22:09;;;;;;;2.77;0.50;;;;;;;;;;5018716;28;59617;-67
2023/04/12 05:24:34;;;;;;;3.77;1.20;;;;;;;;;;5022763;28;58262;-66
2023/04/12 05:26:59;;;;;;;2.07;0.57;;;;;;;;;;5021171;28;58410;-64
2023/04/12 05:29:24;;;;;;;1.80;0.90;;;;;;;;;;5023419;28;57740;-66
2023/04/12 05:31:49;;;;;;;2.23;0.70;;;;;;;;;;5025601;28;57673;-67
2023/04/12 05:34:14;;;;;;;1.43;0.43;;;;;;;;;;5027365;28;58432;-66
2023/04/12 05:36:40;;;;;;;5.00;1.52;;;;;;;;;;5024091;28;58198;-66
2023/04/12 05:39:05;;;;;;;0.45;0.45;;;;;;;;;;5021861;28;57762;-67
2023/04/12 05:41:30;;;;;;;2.20;0.70;;;;;;;;;;5022467;28;57964;-67
2023/04/12 05:43:55;;;;;;;1.70;1.10;;;;;;;;;;5023180;28;57984;-67
2023/04/12 05:46:21;;;;;;;1.43;0.50;;;;;;;;;;5024151;28;57865;-66
2023/04/12 05:48:46;;;;;;;2.20;0.70;;;;;;;;;;5023062;28;57968;-66
2023/04/12 05:51:11;;;;;;;1.20;0.77;;;;;;;;;;5021267;28;57838;-67
2023/04/12 05:53:36;;;;;;;2.20;0.60;;;;;;;;;;5033526;28;57734;-66
2023/04/12 05:56:02;;;;;;;1.93;0.90;;;;;;;;;;5018444;28;58128;-67
2023/04/12 05:58:27;;;;;;;1.13;0.45;;;;;;;;;;5021438;28;58152;-67
2023/04/12 06:00:54;;;;;;;1.58;0.60;;;;;;;;;;5020971;28;57952;-67
2023/04/12 06:03:20;;;;;;;1.25;0.77;;;;;;;;;;5020781;28;57862;-66
2023/04/12 06:05:45;;;;;;;0.52;0.50;;;;;;;;;;5017788;28;58000;-67
2023/04/12 06:08:11;;;;;;;1.77;0.60;;;;;;;;;;5026829;28;58136;-67
2023/04/12 06:10:36;;;;;;;1.42;0.60;;;;;;;;;;5018453;28;58458;-67
2023/04/12 06:13:02;;;;;;;0.70;0.50;;;;;;;;;;5017764;28;58389;-67
2023/04/12 06:15:27;;;;;;;1.07;0.50;;;;;;;;;;5025538;28;58579;-66
2023/04/12 06:17:53;;;;;;;2.47;0.50;;;;;;;;;;5025722;28;58061;-67
2023/04/12 06:20:18;;;;;;;1.43;0.93;;;;;;;;;;5027211;28;58198;-66
2023/04/12 06:22:43;;;;;;;5.13;0.80;;;;;;;;;;5023536;28;58270;-67
2023/04/12 06:25:08;;;;;;;0.87;0.30;;;;;;;;;;5021448;28;58163;-67
2023/04/12 06:27:33;;;;;;;2.63;0.93;;;;;;;;;;5020658;28;58348;-67
2023/04/12 06:29:59;;;;;;;4.72;2.35;;;;;;;;;;5025857;28;58450;-67
2023/04/12 06:32:24;;;;;;;0.80;0.50;;;;;;;;;;5023436;28;58229;-67
2023/04/12 06:34:49;;;;;;;1.83;0.60;;;;;;;;;;5023780;28;58072;-67
2023/04/12 06:37:15;;;;;;;5.10;0.60;;;;;;;;;;5022414;28;58040;-67
2023/04/12 06:39:40;;;;;;;0.40;0.30;;;;;;;;;;5021417;28;57834;-67
2023/04/12 06:42:05;;;;;;;1.52;0.70;;;;;;;;;;5018735;28;58326;-67
2023/04/12 06:44:32;;;;;;;0.90;0.40;;;;;;;;;;5025638;28;57979;-66
2023/04/12 06:46:57;;;;;;;0.75;0.35;;;;;;;;;;5023195;28;57927;-67
2023/04/12 06:49:22;;;;;;;0.52;0.30;;;;;;;;;;5024069;28;58046;-67
2023/04/12 06:51:47;;;;;;;0.67;0.40;;;;;;;;;;5020710;28;57483;-66
2023/04/12 06:54:12;;;;;;;0.40;0.40;;;;;;;;;;5022910;28;57481;-66
2023/04/12 06:56:38;;;;;;;1.30;0.40;;;;;;;;;;5021750;28;57613;-67
2023/04/12 06:59:03;;;;;;;0.73;0.70;;;;;;;;;;5023774;28;57974;-67
2023/04/12 07:01:28;;;;;;;1.80;0.27;;;;;;;;;;5021189;28;59095;-66
2023/04/12 07:03:54;;;;;;;0.70;0.30;;;;;;;;;;5020131;28;57974;-66
2023/04/12 07:06:19;;;;;;;0.30;0.30;;;;;;;;;;5024649;28;57899;-67
2023/04/12 07:08:44;;;;;;;2.53;0.60;;;;;;;;;;5020404;28;58234;-66
2023/04/12 07:11:09;;;;;;;1.30;0.83;;;;;;;;;;5023082;28;58923;-67
2023/04/12 07:13:35;;;;;;;0.50;0.37;;;;;;;;;;5019731;28;58232;-66
2023/04/12 07:16:00;;;;;;;0.60;0.30;;;;;;;;;;5021892;28;58309;-66
2023/04/12 07:18:26;;;;;;;0.63;0.53;;;;;;;;;;5025824;28;57841;-66
2023/04/12 07:20:53;;;;;;;0.60;0.38;;;;;;;;;;5022519;28;58005;-66
2023/04/12 07:23:18;;;;;;;0.20;0.20;;;;;;;;;;5016555;28;58037;-67
2023/04/12 07:25:43;;;;;;;0.52;0.50;;;;;;;;;;5021913;28;58331;-67
2023/04/12 07:28:08;;;;;;;0.53;0.30;;;;;;;;;;5023513;28;57724;-67
2023/04/12 07:30:33;;;;;;;1.23;0.32;;;;;;;;;;5023473;28;58020;-66
2023/04/12 07:33:04;;;;;;;0.17;0.10;;;;;;;;;;5021545;28;57961;-66
2023/04/12 07:35:29;;;;;;;0.73;0.30;;;;;;;;;;5020188;28;58500;-67
2023/04/12 07:37:54;;;;;;;0.22;0.22;;;;;;;;;;5018853;28;58037;-66
2023/04/12 07:40:20;;;;;;;3.03;0.50;;;;;;;;;;5024253;28;59220;-67
2023/04/12 07:42:45;;;;;;;0.60;0.33;;;;;;;;;;5022569;28;58556;-66
2023/04/12 07:45:10;;;;;;;0.63;0.40;;;;;;;;;;5023675;28;58393;-67
2023/04/12 07:47:35;;;;;;;0.33;0.33;;;;;;;;;;5023632;28;58340;-67
2023/04/12 07:50:00;;;;;;;0.93;0.30;;;;;;;;;;5022639;28;58626;-67
2023/04/12 07:52:26;;;;;;;1.02;0.30;;;;;;;;;;5023974;28;58382;-68
2023/04/12 07:54:51;;;;;;;0.85;0.50;;;;;;;;;;5019622;28;58566;-67
2023/04/12 07:57:16;;;;;;;2.22;0.63;;;;;;;;;;5026629;28;58605;-67
2023/04/12 07:59:41;;;;;;;0.40;0.40;;;;;;;;;;5028473;28;59028;-67
2023/04/12 08:02:06;;;;;;;0.40;0.30;;;;;;;;;;5028739;28;58256;-67
2023/04/12 08:04:32;;;;;;;0.47;0.30;;;;;;;;;;5022794;28;58684;-65
2023/04/12 08:06:57;;;;;;;0.57;0.57;;;;;;;;;;5025925;28;58610;-66
2023/04/12 08:09:23;;;;;;;0.73;0.20;;;;;;;;;;5026967;28;58596;-67
2023/04/12 08:11:48;;;;;;;0.47;0.32;;;;;;;;;;5025363;28;58205;-66
2023/04/12 08:14:14;;;;;;;0.63;0.40;;;;;;;;;;5020641;28;58426;-66
2023/04/12 08:16:39;;;;;;;0.70;0.22;;;;;;;;;;5021766;28;58409;-66
2023/04/12 08:19:04;;;;;;;0.30;0.30;;;;;;;;;;5022019;28;58226;-67
2023/04/12 08:21:29;;;;;;;0.40;0.30;;;;;;;;;;5019786;28;58604;-67
2023/04/12 08:23:55;;;;;;;0.53;0.30;;;;;;;;;;5020986;28;58200;-67
2023/04/12 08:26:20;;;;;;;0.70;0.30;;;;;;;;;;5023457;28;58905;-67
2023/04/12 08:28:47;;;;;;;0.83;0.40;;;;;;;;;;5022043;28;58858;-67
2023/04/12 08:31:12;;;;;;;0.20;0.20;;;;;;;;;;5026538;28;58606;-66
2023/04/12 08:33:37;;;;;;;0.37;0.20;;;;;;;;;;5021235;28;58854;-67
2023/04/12 08:36:03;;;;;;;0.20;0.20;;;;;;;;;;5018242;28;58415;-66
2023/04/12 08:38:28;;;;;;;0.13;0.13;;;;;;;;;;5026771;28;58422;-67
2023/04/12 08:40:53;;;;;;;0.40;0.40;;;;;;;;;;5023194;28;58643;-67
2023/04/12 08:43:19;;;;;;;0.70;0.30;;;;;;;;;;5022107;28;58269;-65
2023/04/12 08:45:45;;;;;;;0.75;0.75;;;;;;;;;;5025159;28;58799;-67
2023/04/12 08:48:10;;;;;;;0.25;0.15;;;;;;;;;;5019721;28;58874;-67
2023/04/12 08:50:35;;;;;;;0.40;0.30;;;;;;;;;;5025316;28;58231;-67
2023/04/12 08:53:01;;;;;;;0.60;0.20;;;;;;;;;;5018965;28;59053;-65
2023/04/12 08:55:26;;;;;;;1.23;0.20;;;;;;;;;;5021766;28;58651;-67
2023/04/12 08:57:52;;;;;;;0.30;0.30;;;;;;;;;;5022238;28;58650;-67
2023/04/12 09:00:19;;;;;;;0.52;0.30;;;;;;;;;;5023383;28;58309;-67
2023/04/12 09:02:45;;;;;;;0.30;0.30;;;;;;;;;;5022924;28;58383;-67
2023/04/12 09:05:13;;;;;;;1.77;0.30;;;;;;;;;;5024689;28;60084;-67
2023/04/12 09:07:38;;;;;;;0.68;0.30;;;;;;;;;;5023623;28;58408;-67
2023/04/12 09:10:03;;;;;;;0.15;0.15;;;;;;;;;;5023241;28;58680;-66
2023/04/12 09:12:29;;;;;;;0.75;0.15;;;;;;;;;;5025549;28;58277;-66
2023/04/12 09:15:11;;;;;;;0.68;0.30;;;;;;;;;;5022133;28;60290;-67
2023/04/12 09:17:37;;;;;;;0.30;0.30;;;;;;;;;;5025408;28;58351;-67
2023/04/12 09:20:13;;;;;;;0.30;0.10;;;;;;;;;;5020482;28;60139;-67
2023/04/12 09:22:43;;;;;;;0.50;0.35;;;;;;;;;;5024600;28;58794;-67
2023/04/12 09:25:08;;;;;;;0.20;0.20;;;;;;;;;;5022599;28;58773;-67
2023/04/12 09:27:49;;;;;;;0.35;0.25;;;;;;;;;;5022463;28;58407;-67
2023/04/12 09:30:15;;;;;;;0.22;0.22;;;;;;;;;;5024908;28;58490;-67
2023/04/12 09:32:41;;;;;;;0.30;0.30;;;;;;;;;;5020059;28;58000;-66
2023/04/12 09:35:06;;;;;;;0.20;0.13;;;;;;;;;;5020851;28;58854;-67
2023/04/12 09:37:31;;;;;;;0.52;0.20;;;;;;;;;;5021695;28;58111;-67
2023/04/12 09:40:06;;;;;;;0.30;0.30;;;;;;;;;;5021043;28;58470;-65
2023/04/12 09:42:32;;;;;;;0.40;0.25;;;;;;;;;;5019853;28;59017;-67
2023/04/12 09:44:58;;;;;;;0.45;0.45;;;;;;;;;;5022726;28;58763;-66
2023/04/12 09:47:37;;;;;;;0.50;0.28;;;;;;;;;;5021117;28;58543;-67
2023/04/12 09:50:04;;;;;;;0.30;0.28;;;;;;;;;;5020087;28;58872;-66
2023/04/12 09:52:34;;;;;;;0.28;0.10;;;;;;;;;;5019719;28;58319;-67
2023/04/12 09:54:59;;;;;;;0.65;0.20;;;;;;;;;;5020236;28;58513;-67
2023/04/12 09:57:25;;;;;;;0.20;0.10;;;;;;;;;;5018017;28;58730;-66
2023/04/12 09:59:52;;;;;;;0.43;0.20;;;;;;;;;;5026035;28;58735;-67
2023/04/12 10:02:18;;;;;;;0.15;0.10;;;;;;;;;;5036667;28;59576;-66
2023/04/12 10:04:44;;;;;;;0.85;0.47;;;;;;;;;;5022413;28;58805;-66
2023/04/12 10:07:09;;;;;;;0.75;0.57;;;;;;;;;;5022200;28;58533;-67
2023/04/12 10:09:37;;;;;;;0.98;0.52;;;;;;;;;;5023119;28;58690;-66
2023/04/12 10:12:03;;;;;;;0.13;0.13;;;;;;;;;;5021886;28;58072;-65
2023/04/12 10:14:29;;;;;;;0.95;0.68;;;;;;;;;;5020403;28;58313;-66
2023/04/12 10:16:59;;;;;;;0.90;0.20;;;;;;;;;;5018345;28;58462;-67
2023/04/12 10:19:25;;;;;;;0.30;0.30;;;;;;;;;;5021380;28;59360;-67
2023/04/12 10:21:50;;;;;;;0.43;0.20;;;;;;;;;;5023397;28;58643;-66
2023/04/12 10:24:16;;;;;;;0.20;0.20;;;;;;;;;;5025912;28;58557;-66
2023/04/12 10:26:42;;;;;;;1.40;0.40;;;;;;;;;;5023825;28;59523;-66
2023/04/12 10:29:27;;;;;;;0.30;0.25;;;;;;;;;;5021582;28;58632;-66
2023/04/12 10:31:53;;;;;;;1.42;0.30;;;;;;;;;;5024515;28;58434;-67
2023/04/12 10:34:22;;;;;;;0.52;0.50;;;;;;;;;;5023011;28;58771;-66
2023/04/12 10:36:52;;;;;;;0.85;0.30;;;;;;;;;;5019741;28;58082;-65
2023/04/12 10:39:17;;;;;;;0.55;0.20;;;;;;;;;;5020324;28;64017;-67
2023/04/12 10:42:14;;;;;;;0.47;0.32;;;;;;;;;;5019448;28;58917;-67
2023/04/12 10:44:39;;;;;;;0.63;0.63;;;;;;;;;;5027052;28;58270;-67
2023/04/12 10:47:05;;;;;;;0.30;0.30;;;;;;;;;;5020642;28;59000;-67
2023/04/12 10:49:31;;;;;;;0.20;0.20;;;;;;;;;;5024528;28;58205;-67
2023/04/12 10:51:59;;;;;;;0.40;0.10;;;;;;;;;;5024305;28;58372;-67
2023/04/12 10:54:24;;;;;;;0.10;0.10;;;;;;;;;;5021820;28;59537;-66
2023/04/12 10:56:50;;;;;;;1.10;0.47;;;;;;;;;;5021643;28;58186;-66
2023/04/12 10:59:15;;;;;;;0.47;0.47;;;;;;;;;;5024936;28;58957;-67
2023/04/12 11:01:41;;;;;;;0.22;0.22;;;;;;;;;;5019389;28;58672;-67
2023/04/12 11:04:06;;;;;;;0.45;0.25;;;;;;;;;;5021143;28;58757;-67
2023/04/12 11:06:40;;;;;;;0.80;0.57;;;;;;;;;;5020032;28;58961;-66
2023/04/12 11:09:05;;;;;;;0.20;0.20;;;;;;;;;;5023386;28;58642;-66
2023/04/12 11:11:33;;;;;;;0.50;0.50;;;;;;;;;;5022805;28;58526;-66
2023/04/12 11:13:58;;;;;;;0.20;0.20;;;;;;;;;;5022231;28;58776;-67
2023/04/12 11:16:23;;;;;;;0.20;0.20;;;;;;;;;;5023576;28;58260;-67
2023/04/12 11:18:49;;;;;;;1.03;0.40;;;;;;;;;;5021475;28;58882;-66
2023/04/12 11:21:14;;;;;;;0.60;0.30;;;;;;;;;;5024923;28;62750;-67
2023/04/12 11:23:41;;;;;;;0.17;0.17;;;;;;;;;;5022248;28;58685;-67
2023/04/12 11:26:06;;;;;;;0.32;0.32;;;;;;;;;;5019258;28;58938;-67
2023/04/12 11:28:31;;;;;;;0.43;0.20;;;;;;;;;;5019184;28;58962;-67
2023/04/12 11:30:57;;;;;;;0.20;0.20;;;;;;;;;;5020693;28;58505;-66
2023/04/12 11:33:35;;;;;;;0.40;0.20;;;;;;;;;;5023075;28;58593;-66
2023/04/12 11:36:08;;;;;;;0.20;0.20;;;;;;;;;;5015838;28;57948;-67
2023/04/12 11:38:33;;;;;;;0.20;0.10;;;;;;;;;;5018637;28;58400;-67
2023/04/12 11:40:59;;;;;;;0.52;0.43;;;;;;;;;;5013194;28;59922;-67
2023/04/12 11:43:24;;;;;;;0.40;0.30;;;;;;;;;;4998666;28;58791;-67
2023/04/12 11:45:54;;;;;;;0.33;0.20;;;;;;;;;;5000416;28;58354;-66
2023/04/12 11:48:20;;;;;;;0.15;0.15;;;;;;;;;;5003709;28;58358;-67
2023/04/12 11:50:45;;;;;;;0.30;0.30;;;;;;;;;;5002466;28;58665;-66
2023/04/12 11:53:14;;;;;;;0.23;0.23;;;;;;;;;;5004694;28;58282;-67
2023/04/12 11:55:39;;;;;;;0.30;0.30;;;;;;;;;;4996946;28;58298;-66
2023/04/12 11:58:05;;;;;;;0.30;0.10;;;;;;;;;;5001749;28;59111;-66
2023/04/12 12:00:31;;;;;;;0.35;0.22;;;;;;;;;;4999284;28;58508;-66
2023/04/12 12:02:56;;;;;;;0.40;0.20;;;;;;;;;;5000364;28;58601;-68
2023/04/12 12:05:22;;;;;;;0.20;0.20;;;;;;;;;;5000983;28;58608;-67
2023/04/12 12:07:47;;;;;;;0.20;0.20;;;;;;;;;;5000449;28;58388;-67
2023/04/12 12:10:12;;;;;;;0.22;0.22;;;;;;;;;;4996845;28;58374;-66
2023/04/12 12:12:37;;;;;;;0.20;0.17;;;;;;;;;;5000394;28;58335;-67
2023/04/12 12:15:02;;;;;;;0.25;0.25;;;;;;;;;;5000960;28;57708;-67
2023/04/12 12:17:27;;;;;;;0.50;0.10;;;;;;;;;;4996093;28;58223;-66
2023/04/12 12:19:55;;;;;;;0.60;0.20;;;;;;;;;;4997965;28;58719;-67
2023/04/12 12:22:21;;;;;;;0.40;0.40;;;;;;;;;;4999562;28;58363;-67
2023/04/12 12:24:50;;;;;;;0.70;0.32;;;;;;;;;;5002279;28;58877;-67
2023/04/12 12:27:20;;;;;;;0.38;0.38;;;;;;;;;;5021688;28;61763;-67
2023/04/12 12:29:48;;;;;;;1.27;0.20;;;;;;;;;;5021832;28;58407;-67
2023/04/12 12:32:13;;;;;;;1.90;0.30;;;;;;;;;;5021525;28;58463;-66
2023/04/12 12:34:40;;;;;;;1.67;0.40;;;;;;;;;;5021388;28;58576;-66
2023/04/12 12:37:09;;;;;;;0.63;0.10;;;;;;;;;;5023823;28;58325;-66
2023/04/12 12:39:35;;;;;;;2.72;0.20;;;;;;;;;;5019389;28;58646;-67
2023/04/12 12:42:01;;;;;;;2.00;0.38;;;;;;;;;;5025455;28;58375;-67
2023/04/12 12:44:26;;;;;;;0.38;0.22;;;;;;;;;;5022945;28;59162;-67
2023/04/12 12:46:51;;;;;;;0.30;0.10;;;;;;;;;;5024091;28;58426;-67
2023/04/12 12:49:17;;;;;;;0.10;0.10;;;;;;;;;;5025790;28;58437;-67
2023/04/12 12:51:42;;;;;;;0.22;0.22;;;;;;;;;;5026155;28;58894;-67
2023/04/12 12:54:07;;;;;;;0.33;0.30;;;;;;;;;;5021103;28;58415;-67
2023/04/12 12:56:34;;;;;;;0.50;0.20;;;;;;;;;;5025776;28;58737;-67
2023/04/12 12:58:59;;;;;;;0.32;0.25;;;;;;;;;;5020186;28;58786;-66
2023/04/12 13:01:25;;;;;;;0.30;0.23;;;;;;;;;;5025565;28;58175;-67
2023/04/12 13:03:51;;;;;;;0.40;0.20;;;;;;;;;;5019843;28;58979;-67
2023/04/12 13:06:16;;;;;;;0.10;0.10;;;;;;;;;;5024958;28;58748;-67
2023/04/12 13:08:41;;;;;;;0.20;0.20;;;;;;;;;;5020117;28;58301;-67
2023/04/12 13:11:06;;;;;;;0.80;0.20;;;;;;;;;;5022577;28;57809;-67
2023/04/12 13:13:31;;;;;;;0.40;0.13;;;;;;;;;;5023194;28;57880;-67
2023/04/12 13:15:56;;;;;;;1.05;0.20;;;;;;;;;;5019518;28;58058;-67
2023/04/12 13:18:21;;;;;;;0.20;0.20;;;;;;;;;;5022894;28;58793;-67
2023/04/12 13:20:46;;;;;;;0.70;0.30;;;;;;;;;;5024404;28;58529;-66
2023/04/12 13:23:13;;;;;;;0.20;0.07;;;;;;;;;;5020786;28;58374;-64
2023/04/12 13:25:38;;;;;;;0.40;0.40;;;;;;;;;;5026632;28;58870;-65
2023/04/12 13:28:03;;;;;;;0.20;0.20;;;;;;;;;;5024077;28;58745;-65
2023/04/12 13:30:28;;;;;;;0.20;0.20;;;;;;;;;;5028960;28;58592;-65
2023/04/12 13:32:54;;;;;;;0.17;0.17;;;;;;;;;;5026812;28;59117;-65
2023/04/12 13:35:19;;;;;;;0.43;0.10;;;;;;;;;;5024075;28;58660;-65
2023/04/12 13:37:44;;;;;;;0.10;0.10;;;;;;;;;;5020105;28;58792;-65
2023/04/12 13:40:10;;;;;;;0.10;0.10;;;;;;;;;;5026737;28;57786;-65
2023/04/12 13:42:35;;;;;;;0.10;0.10;;;;;;;;;;5020607;28;58629;-65
2023/04/12 13:45:00;;;;;;;0.10;0.10;;;;;;;;;;5022837;28;58965;-65
2023/04/12 13:47:26;;;;;;;0.20;0.10;;;;;;;;;;5022625;28;58507;-65
2023/04/12 13:49:51;;;;;;;0.55;0.28;;;;;;;;;;5023340;28;58317;-65
2023/04/12 13:52:16;;;;;;;0.20;0.20;;;;;;;;;;5021070;28;58299;-65
2023/04/12 13:54:42;;;;;;;0.53;0.10;;;;;;;;;;5022925;28;58203;-65
2023/04/12 13:57:07;;;;;;;0.10;0.10;;;;;;;;;;5023863;28;59181;-65
2023/04/12 13:59:32;;;;;;;0.27;0.27;;;;;;;;;;5027946;28;58435;-66
2023/04/12 14:01:57;;;;;;;0.33;0.17;;;;;;;;;;5018268;28;58322;-65
2023/04/12 14:04:26;;;;;;;0.20;0.20;;;;;;;;;;5022729;28;59636;-65
2023/04/12 14:06:52;;;;;;;0.10;0.10;;;;;;;;;;5023693;28;58464;-65
2023/04/12 14:09:27;;;;;;;0.28;0.20;;;;;;;;;;5026771;28;58966;-65
2023/04/12 14:11:56;;;;;;;0.20;0.20;;;;;;;;;;5021825;28;58648;-65
2023/04/12 14:14:22;;;;;;;0.30;0.30;;;;;;;;;;5023490;28;58672;-65
2023/04/12 14:16:52;;;;;;;1.13;0.85;;;;;;;;;;5022467;28;60298;-65
2023/04/12 14:19:17;;;;;;;0.30;0.20;;;;;;;;;;5019880;28;58605;-65
2023/04/12 14:21:42;;;;;;;1.13;0.23;;;;;;;;;;5026382;28;58452;-65
2023/04/12 14:24:07;;;;;;;0.43;0.20;;;;;;;;;;5024115;28;58949;-65
2023/04/12 14:26:33;;;;;;;0.10;0.10;;;;;;;;;;5023000;28;58766;-66
2023/04/12 14:28:58;;;;;;;0.40;0.27;;;;;;;;;;5018345;28;58556;-67
2023/04/12 14:31:23;;;;;;;0.10;0.10;;;;;;;;;;5023580;28;58895;-67
2023/04/12 14:33:48;;;;;;;0.10;0.10;;;;;;;;;;5025700;28;58693;-66
2023/04/12 14:36:13;;;;;;;0.10;0.10;;;;;;;;;;5023901;28;58613;-66
2023/04/12 14:38:38;;;;;;;3.15;0.20;;;;;;;;;;5017484;28;58386;-65